sensor_id;sensor_type;location;lat;lon;timestamp;pressure;altitude;pressure_sealevel;temperature;humidity
40612;BME280;26317;44.894;20.286;2023-05-06T00:02:19;100849.31;;;17.65;61.97
40612;BME280;26317;44.894;20.286;2023-05-06T00:04:56;100843.00;;;17.56;61.64
40612;BME280;26317;44.894;20.286;2023-05-06T00:07:34;100848.28;;;17.38;61.31
40612;BME280;26317;44.894;20.286;2023-05-06T00:10:09;100849.34;;;17.29;61.64
40612;BME280;26317;44.894;20.286;2023-05-06T00:12:44;100810.44;;;16.89;61.60
40612;BME280;26317;44.894;20.286;2023-05-06T00:15:32;100860.97;;;17.07;62.19
40612;BME280;26317;44.894;20.286;2023-05-06T00:18:15;100856.38;;;16.94;62.88
40612;BME280;26317;44.894;20.286;2023-05-06T00:21:02;100864.13;;;16.87;63.29
40612;BME280;26317;44.894;20.286;2023-05-06T00:23:43;100860.31;;;16.74;63.61
40612;BME280;26317;44.894;20.286;2023-05-06T00:26:20;100860.75;;;16.68;64.42
40612;BME280;26317;44.894;20.286;2023-05-06T00:28:55;100852.53;;;16.59;64.53
40612;BME280;26317;44.894;20.286;2023-05-06T00:31:31;100860.44;;;16.55;64.67
40612;BME280;26317;44.894;20.286;2023-05-06T00:34:17;100855.72;;;16.47;65.09
40612;BME280;26317;44.894;20.286;2023-05-06T00:36:53;100860.13;;;16.43;65.62
40612;BME280;26317;44.894;20.286;2023-05-06T00:39:33;100861.53;;;16.41;65.85
40612;BME280;26317;44.894;20.286;2023-05-06T00:42:09;100859.34;;;16.43;66.23
40612;BME280;26317;44.894;20.286;2023-05-06T00:44:45;100863.75;;;16.39;65.86
40612;BME280;26317;44.894;20.286;2023-05-06T00:47:24;100856.44;;;16.39;65.85
40612;BME280;26317;44.894;20.286;2023-05-06T00:50:03;100856.91;;;16.41;65.94
40612;BME280;26317;44.894;20.286;2023-05-06T00:52:42;100859.34;;;16.43;66.90
40612;BME280;26317;44.894;20.286;2023-05-06T00:55:38;100862.53;;;16.45;66.80
40612;BME280;26317;44.894;20.286;2023-05-06T00:58:14;100854.22;;;16.41;66.49
40612;BME280;26317;44.894;20.286;2023-05-06T01:00:47;100845.78;;;16.43;65.51
40612;BME280;26317;44.894;20.286;2023-05-06T01:03:22;100857.53;;;16.52;64.71
40612;BME280;26317;44.894;20.286;2023-05-06T01:06:07;100853.91;;;16.56;65.36
40612;BME280;26317;44.894;20.286;2023-05-06T01:08:57;100856.63;;;16.56;66.22
40612;BME280;26317;44.894;20.286;2023-05-06T01:11:46;100845.78;;;16.56;66.18
40612;BME280;26317;44.894;20.286;2023-05-06T01:14:26;100856.03;;;16.60;65.85
40612;BME280;26317;44.894;20.286;2023-05-06T01:17:10;100854.94;;;16.61;65.93
40612;BME280;26317;44.894;20.286;2023-05-06T01:19:50;100859.94;;;16.67;66.03
40612;BME280;26317;44.894;20.286;2023-05-06T01:22:29;100855.44;;;16.63;66.20
40612;BME280;26317;44.894;20.286;2023-05-06T01:25:21;100851.91;;;16.62;66.23
40612;BME280;26317;44.894;20.286;2023-05-06T01:28:09;100850.63;;;16.60;65.74
40612;BME280;26317;44.894;20.286;2023-05-06T01:30:57;100854.94;;;16.61;66.05
40612;BME280;26317;44.894;20.286;2023-05-06T01:33:38;100856.03;;;16.60;66.59
40612;BME280;26317;44.894;20.286;2023-05-06T01:36:22;100850.91;;;16.58;66.75
40612;BME280;26317;44.894;20.286;2023-05-06T01:39:09;100851.50;;;16.55;66.51
40612;BME280;26317;44.894;20.286;2023-05-06T01:41:49;100856.91;;;16.55;66.14
40612;BME280;26317;44.894;20.286;2023-05-06T01:44:26;100859.44;;;16.51;66.49
40612;BME280;26317;44.894;20.286;2023-05-06T01:47:01;100851.91;;;16.48;66.50
40612;BME280;26317;44.894;20.286;2023-05-06T01:49:42;100850.78;;;16.49;66.42
40612;BME280;26317;44.894;20.286;2023-05-06T01:52:19;100821.03;;;16.22;66.29
40612;BME280;26317;44.894;20.286;2023-05-06T01:54:55;100853.13;;;16.42;66.98
40612;BME280;26317;44.894;20.286;2023-05-06T01:57:37;100846.31;;;16.31;68.01
40612;BME280;26317;44.894;20.286;2023-05-06T02:00:16;100851.91;;;16.35;68.05
40612;BME280;26317;44.894;20.286;2023-05-06T02:02:53;100801.97;;;16.00;68.34
40612;BME280;26317;44.894;20.286;2023-05-06T02:05:27;100845.31;;;16.27;68.33
40612;BME280;26317;44.894;20.286;2023-05-06T02:08:03;100840.47;;;16.24;68.40
40612;BME280;26317;44.894;20.286;2023-05-06T02:13:29;100847.41;;;16.17;68.27
40612;BME280;26317;44.894;20.286;2023-05-06T02:16:01;100849.91;;;16.13;68.33
40612;BME280;26317;44.894;20.286;2023-05-06T02:18:37;100847.28;;;16.08;68.13
40612;BME280;26317;44.894;20.286;2023-05-06T02:21:13;100827.22;;;15.95;67.63
40612;BME280;26317;44.894;20.286;2023-05-06T02:23:45;100840.47;;;15.97;67.55
40612;BME280;26317;44.894;20.286;2023-05-06T02:26:22;100837.84;;;15.92;67.26
40612;BME280;26317;44.894;20.286;2023-05-06T02:29:05;100833.66;;;15.86;67.47
40612;BME280;26317;44.894;20.286;2023-05-06T02:31:38;100832.31;;;15.83;67.50
40612;BME280;26317;44.894;20.286;2023-05-06T02:34:12;100836.94;;;15.83;67.28
40612;BME280;26317;44.894;20.286;2023-05-06T02:36:48;100839.63;;;15.83;67.69
40612;BME280;26317;44.894;20.286;2023-05-06T02:39:21;100833.22;;;15.79;67.76
40612;BME280;26317;44.894;20.286;2023-05-06T02:41:55;100831.72;;;15.73;67.73
40612;BME280;26317;44.894;20.286;2023-05-06T02:44:33;100833.41;;;15.69;67.96
40612;BME280;26317;44.894;20.286;2023-05-06T02:47:11;100826.38;;;15.68;67.78
40612;BME280;26317;44.894;20.286;2023-05-06T02:49:52;100795.97;;;15.43;67.61
40612;BME280;26317;44.894;20.286;2023-05-06T02:52:35;100810.66;;;15.56;67.87
40612;BME280;26317;44.894;20.286;2023-05-06T02:55:09;100828.16;;;15.58;68.03
40612;BME280;26317;44.894;20.286;2023-05-06T02:57:50;100819.69;;;15.46;68.56
40612;BME280;26317;44.894;20.286;2023-05-06T03:00:43;100829.38;;;15.52;68.46
40612;BME280;26317;44.894;20.286;2023-05-06T03:03:21;100835.91;;;15.46;68.38
40612;BME280;26317;44.894;20.286;2023-05-06T03:05:56;100836.50;;;15.43;68.76
40612;BME280;26317;44.894;20.286;2023-05-06T03:08:30;100834.97;;;15.37;68.64
40612;BME280;26317;44.894;20.286;2023-05-06T03:11:14;100832.34;;;15.32;69.12
40612;BME280;26317;44.894;20.286;2023-05-06T03:13:49;100841.06;;;15.29;68.81
40612;BME280;26317;44.894;20.286;2023-05-06T03:16:42;100836.84;;;15.23;68.87
40612;BME280;26317;44.894;20.286;2023-05-06T03:19:17;100836.91;;;15.18;69.30
40612;BME280;26317;44.894;20.286;2023-05-06T03:21:49;100813.41;;;15.00;70.17
40612;BME280;26317;44.894;20.286;2023-05-06T03:24:24;100844.00;;;15.14;69.48
40612;BME280;26317;44.894;20.286;2023-05-06T03:26:59;100840.56;;;15.08;69.27
40612;BME280;26317;44.894;20.286;2023-05-06T03:29:42;100841.38;;;15.09;69.25
40612;BME280;26317;44.894;20.286;2023-05-06T03:32:20;100838.72;;;15.04;69.38
40612;BME280;26317;44.894;20.286;2023-05-06T03:34:59;100846.84;;;15.04;69.99
40612;BME280;26317;44.894;20.286;2023-05-06T03:37:37;100839.31;;;15.01;70.32
40612;BME280;26317;44.894;20.286;2023-05-06T03:40:14;100832.31;;;15.00;70.27
40612;BME280;26317;44.894;20.286;2023-05-06T03:43:04;100831.81;;;14.98;70.44
40612;BME280;26317;44.894;20.286;2023-05-06T03:45:38;100824.81;;;14.97;70.11
40612;BME280;26317;44.894;20.286;2023-05-06T03:48:18;100831.50;;;14.99;70.59
40612;BME280;26317;44.894;20.286;2023-05-06T03:50:50;100835.53;;;15.02;70.76
40612;BME280;26317;44.894;20.286;2023-05-06T03:53:42;100847.84;;;15.08;70.50
40612;BME280;26317;44.894;20.286;2023-05-06T03:56:26;100837.06;;;15.08;71.11
40612;BME280;26317;44.894;20.286;2023-05-06T03:59:05;100840.88;;;15.07;71.60
40612;BME280;26317;44.894;20.286;2023-05-06T04:01:47;100844.00;;;15.14;71.97
40612;BME280;26317;44.894;20.286;2023-05-06T04:04:27;100852.03;;;15.19;72.57
40612;BME280;26317;44.894;20.286;2023-05-06T04:07:00;100852.81;;;15.19;72.64
40612;BME280;26317;44.894;20.286;2023-05-06T04:09:37;100854.44;;;15.20;72.82
40612;BME280;26317;44.894;20.286;2023-05-06T04:12:14;100862.03;;;15.18;72.53
40612;BME280;26317;44.894;20.286;2023-05-06T04:14:50;100864.16;;;15.22;72.03
40612;BME280;26317;44.894;20.286;2023-05-06T04:17:29;100864.44;;;15.20;71.96
40612;BME280;26317;44.894;20.286;2023-05-06T04:20:19;100860.84;;;15.25;73.01
40612;BME280;26317;44.894;20.286;2023-05-06T04:23:01;100865.16;;;15.26;73.78
40612;BME280;26317;44.894;20.286;2023-05-06T04:28:27;100857.13;;;15.20;74.71
40612;BME280;26317;44.894;20.286;2023-05-06T04:30:59;100876.19;;;15.29;74.57
40612;BME280;26317;44.894;20.286;2023-05-06T04:33:47;100868.28;;;15.33;74.79
40612;BME280;26317;44.894;20.286;2023-05-06T04:36:27;100866.41;;;15.33;74.51
40612;BME280;26317;44.894;20.286;2023-05-06T04:39:22;100874.28;;;15.30;75.06
40612;BME280;26317;44.894;20.286;2023-05-06T04:41:57;100870.28;;;15.27;75.93
40612;BME280;26317;44.894;20.286;2023-05-06T04:44:53;100858.59;;;15.13;76.80
40612;BME280;26317;44.894;20.286;2023-05-06T04:47:35;100889.47;;;15.26;77.58
40612;BME280;26317;44.894;20.286;2023-05-06T04:50:12;100876.03;;;15.20;78.76
40612;BME280;26317;44.894;20.286;2023-05-06T04:52:51;100853.25;;;15.08;78.97
40612;BME280;26317;44.894;20.286;2023-05-06T04:55:34;100883.28;;;15.25;79.08
40612;BME280;26317;44.894;20.286;2023-05-06T04:58:10;100880.28;;;15.27;79.27
40612;BME280;26317;44.894;20.286;2023-05-06T05:00:48;100891.25;;;15.35;79.21
40612;BME280;26317;44.894;20.286;2023-05-06T05:03:21;100890.13;;;15.36;79.12
40612;BME280;26317;44.894;20.286;2023-05-06T05:05:59;100891.88;;;15.46;78.55
40612;BME280;26317;44.894;20.286;2023-05-06T05:08:35;100890.88;;;15.60;78.58
40612;BME280;26317;44.894;20.286;2023-05-06T05:11:09;100890.00;;;15.65;77.85
40612;BME280;26317;44.894;20.286;2023-05-06T05:13:55;100887.06;;;15.61;78.64
40612;BME280;26317;44.894;20.286;2023-05-06T05:16:31;100890.69;;;15.71;78.68
40612;BME280;26317;44.894;20.286;2023-05-06T05:19:17;100888.78;;;15.71;78.40
40612;BME280;26317;44.894;20.286;2023-05-06T05:21:52;100882.00;;;15.74;79.01
40612;BME280;26317;44.894;20.286;2023-05-06T05:24:30;100889.13;;;15.83;79.40
40612;BME280;26317;44.894;20.286;2023-05-06T05:27:06;100894.84;;;15.82;79.25
40612;BME280;26317;44.894;20.286;2023-05-06T05:29:52;100887.63;;;15.91;79.69
40612;BME280;26317;44.894;20.286;2023-05-06T05:32:39;100892.38;;;15.99;78.65
40612;BME280;26317;44.894;20.286;2023-05-06T05:35:24;100891.78;;;16.02;78.97
40612;BME280;26317;44.894;20.286;2023-05-06T05:38:07;100898.13;;;16.11;78.40
40612;BME280;26317;44.894;20.286;2023-05-06T05:40:43;100896.91;;;16.17;77.93
40612;BME280;26317;44.894;20.286;2023-05-06T05:43:16;100894.72;;;16.19;77.74
40612;BME280;26317;44.894;20.286;2023-05-06T05:45:52;100892.03;;;16.19;78.33
40612;BME280;26317;44.894;20.286;2023-05-06T05:48:32;100889.88;;;16.16;77.81
40612;BME280;26317;44.894;20.286;2023-05-06T05:51:14;100890.22;;;16.15;78.10
40612;BME280;26317;44.894;20.286;2023-05-06T05:53:52;100894.50;;;16.16;78.44
40612;BME280;26317;44.894;20.286;2023-05-06T05:56:49;100893.59;;;16.20;78.45
40612;BME280;26317;44.894;20.286;2023-05-06T05:59:23;100900.03;;;16.38;77.26
40612;BME280;26317;44.894;20.286;2023-05-06T06:02:05;100894.13;;;16.49;77.08
40612;BME280;26317;44.894;20.286;2023-05-06T06:04:40;100900.66;;;16.62;76.61
40612;BME280;26317;44.894;20.286;2023-05-06T06:07:18;100894.44;;;16.75;75.74
40612;BME280;26317;44.894;20.286;2023-05-06T06:09:53;100898.84;;;16.85;76.26
40612;BME280;26317;44.894;20.286;2023-05-06T06:12:33;100890.38;;;17.00;75.81
40612;BME280;26317;44.894;20.286;2023-05-06T06:15:11;100904.09;;;17.17;76.49
40612;BME280;26317;44.894;20.286;2023-05-06T06:17:52;100902.75;;;17.28;75.58
40612;BME280;26317;44.894;20.286;2023-05-06T06:20:35;100904.75;;;17.36;74.45
40612;BME280;26317;44.894;20.286;2023-05-06T06:23:09;100909.31;;;17.49;74.12
40612;BME280;26317;44.894;20.286;2023-05-06T06:25:45;100881.19;;;17.45;72.85
40612;BME280;26317;44.894;20.286;2023-05-06T06:28:22;100905.34;;;17.69;72.74
40612;BME280;26317;44.894;20.286;2023-05-06T06:31:02;100909.91;;;17.82;71.18
40612;BME280;26317;44.894;20.286;2023-05-06T06:33:38;100910.44;;;17.93;71.45
40612;BME280;26317;44.894;20.286;2023-05-06T06:36:11;100906.50;;;17.99;71.72
40612;BME280;26317;44.894;20.286;2023-05-06T06:38:50;100898.06;;;18.09;70.76
40612;BME280;26317;44.894;20.286;2023-05-06T06:41:24;100880.34;;;18.03;69.60
40612;BME280;26317;44.894;20.286;2023-05-06T06:44:03;100894.47;;;18.22;68.47
40612;BME280;26317;44.894;20.286;2023-05-06T06:46:42;100878.94;;;18.14;68.99
40612;BME280;26317;44.894;20.286;2023-05-06T06:49:19;100903.38;;;18.45;69.27
40612;BME280;26317;44.894;20.286;2023-05-06T06:51:53;100902.91;;;18.52;68.61
40612;BME280;26317;44.894;20.286;2023-05-06T06:54:31;100902.00;;;18.65;68.23
40612;BME280;26317;44.894;20.286;2023-05-06T06:57:08;100903.97;;;18.73;68.18
40612;BME280;26317;44.894;20.286;2023-05-06T06:59:47;100910.69;;;18.84;69.44
40612;BME280;26317;44.894;20.286;2023-05-06T07:02:34;100916.31;;;18.96;66.22
40612;BME280;26317;44.894;20.286;2023-05-06T07:05:10;100914.09;;;19.07;64.90
40612;BME280;26317;44.894;20.286;2023-05-06T07:07:49;100910.44;;;19.11;63.33
40612;BME280;26317;44.894;20.286;2023-05-06T07:10:27;100915.22;;;19.14;63.39
40612;BME280;26317;44.894;20.286;2023-05-06T07:13:07;100911.22;;;19.20;63.79
40612;BME280;26317;44.894;20.286;2023-05-06T07:15:51;100917.63;;;19.33;64.99
40612;BME280;26317;44.894;20.286;2023-05-06T07:18:29;100912.72;;;19.44;64.84
40612;BME280;26317;44.894;20.286;2023-05-06T07:21:07;100910.94;;;19.56;63.19
40612;BME280;26317;44.894;20.286;2023-05-06T07:23:40;100913.66;;;19.65;61.97
40612;BME280;26317;44.894;20.286;2023-05-06T07:26:14;100917.31;;;19.78;61.76
40612;BME280;26317;44.894;20.286;2023-05-06T07:28:56;100912.50;;;19.83;62.17
40612;BME280;26317;44.894;20.286;2023-05-06T07:31:36;100914.56;;;19.95;60.94
40612;BME280;26317;44.894;20.286;2023-05-06T07:34:13;100914.56;;;20.03;60.83
40612;BME280;26317;44.894;20.286;2023-05-06T07:36:56;100911.59;;;20.17;60.55
40612;BME280;26317;44.894;20.286;2023-05-06T07:39:33;100911.94;;;20.15;60.38
40612;BME280;26317;44.894;20.286;2023-05-06T07:42:11;100906.81;;;20.14;60.78
40612;BME280;26317;44.894;20.286;2023-05-06T07:44:43;100913.84;;;20.24;60.16
40612;BME280;26317;44.894;20.286;2023-05-06T07:47:28;100911.41;;;20.39;60.03
40612;BME280;26317;44.894;20.286;2023-05-06T07:50:13;100915.03;;;20.52;58.71
40612;BME280;26317;44.894;20.286;2023-05-06T07:52:48;100883.50;;;20.42;58.32
40612;BME280;26317;44.894;20.286;2023-05-06T07:55:33;100918.81;;;20.68;58.74
40612;BME280;26317;44.894;20.286;2023-05-06T07:58:15;100916.81;;;20.77;58.24
40612;BME280;26317;44.894;20.286;2023-05-06T08:00:52;100919.28;;;20.99;61.45
40612;BME280;26317;44.894;20.286;2023-05-06T08:03:33;100909.28;;;21.03;60.51
40612;BME280;26317;44.894;20.286;2023-05-06T08:06:08;100901.22;;;21.16;62.79
40612;BME280;26317;44.894;20.286;2023-05-06T08:08:44;100913.25;;;21.35;64.18
40612;BME280;26317;44.894;20.286;2023-05-06T08:11:24;100918.63;;;21.44;56.90
40612;BME280;26317;44.894;20.286;2023-05-06T08:14:00;100919.16;;;21.58;59.04
40612;BME280;26317;44.894;20.286;2023-05-06T08:16:36;100902.09;;;21.61;59.92
40612;BME280;26317;44.894;20.286;2023-05-06T08:19:18;100913.78;;;21.82;59.27
40612;BME280;26317;44.894;20.286;2023-05-06T08:21:58;100914.19;;;21.93;57.08
40612;BME280;26317;44.894;20.286;2023-05-06T08:24:36;100916.94;;;22.05;56.22
40612;BME280;26317;44.894;20.286;2023-05-06T08:27:31;100918.78;;;22.13;53.98
40612;BME280;26317;44.894;20.286;2023-05-06T08:30:09;100911.97;;;22.19;54.77
40612;BME280;26317;44.894;20.286;2023-05-06T08:32:49;100911.66;;;22.33;54.47
40612;BME280;26317;44.894;20.286;2023-05-06T08:35:30;100920.06;;;22.40;52.35
40612;BME280;26317;44.894;20.286;2023-05-06T08:38:02;100917.13;;;22.45;52.36
40612;BME280;26317;44.894;20.286;2023-05-06T08:40:41;100908.00;;;22.53;49.92
40612;BME280;26317;44.894;20.286;2023-05-06T08:43:19;100906.19;;;22.57;48.87
40612;BME280;26317;44.894;20.286;2023-05-06T08:45:54;100863.25;;;22.33;48.64
40612;BME280;26317;44.894;20.286;2023-05-06T08:48:35;100899.59;;;22.70;49.76
40612;BME280;26317;44.894;20.286;2023-05-06T08:51:29;100906.00;;;22.74;49.96
40612;BME280;26317;44.894;20.286;2023-05-06T08:54:11;100898.47;;;22.83;48.73
40612;BME280;26317;44.894;20.286;2023-05-06T08:56:50;100898.31;;;22.92;47.34
40612;BME280;26317;44.894;20.286;2023-05-06T08:59:33;100906.84;;;23.03;46.90
40612;BME280;26317;44.894;20.286;2023-05-06T09:02:23;100882.78;;;22.96;47.46
40612;BME280;26317;44.894;20.286;2023-05-06T09:05:04;100897.91;;;23.18;47.26
40612;BME280;26317;44.894;20.286;2023-05-06T09:07:45;100896.97;;;23.26;47.69
40612;BME280;26317;44.894;20.286;2023-05-06T09:10:36;100888.19;;;23.32;46.52
40612;BME280;26317;44.894;20.286;2023-05-06T09:13:12;100885.97;;;23.38;47.12
40612;BME280;26317;44.894;20.286;2023-05-06T09:15:55;100899.31;;;23.52;46.00
40612;BME280;26317;44.894;20.286;2023-05-06T09:18:33;100890.41;;;23.55;47.03
40612;BME280;26317;44.894;20.286;2023-05-06T09:21:09;100880.06;;;23.48;45.57
40612;BME280;26317;44.894;20.286;2023-05-06T09:23:51;100892.22;;;23.51;45.69
40612;BME280;26317;44.894;20.286;2023-05-06T09:26:26;100889.63;;;23.54;45.78
40612;BME280;26317;44.894;20.286;2023-05-06T09:29:04;100891.13;;;23.67;45.58
40612;BME280;26317;44.894;20.286;2023-05-06T09:31:53;100885.00;;;23.86;45.15
40612;BME280;26317;44.894;20.286;2023-05-06T09:34:29;100887.75;;;24.02;44.18
40612;BME280;26317;44.894;20.286;2023-05-06T09:37:14;100890.41;;;24.14;43.53
40612;BME280;26317;44.894;20.286;2023-05-06T09:39:55;100880.81;;;24.20;42.85
40612;BME280;26317;44.894;20.286;2023-05-06T09:42:32;100875.94;;;24.29;42.33
40612;BME280;26317;44.894;20.286;2023-05-06T09:45:11;100871.34;;;24.33;43.06
40612;BME280;26317;44.894;20.286;2023-05-06T09:48:11;100804.03;;;23.73;42.88
40612;BME280;26317;44.894;20.286;2023-05-06T09:51:00;100787.59;;;23.57;43.19
40612;BME280;26317;44.894;20.286;2023-05-06T09:53:51;100761.09;;;23.61;41.14
40612;BME280;26317;44.894;20.286;2023-05-06T09:56:33;100874.59;;;24.39;40.88
40612;BME280;26317;44.894;20.286;2023-05-06T09:59:15;100820.50;;;24.04;41.62
40612;BME280;26317;44.894;20.286;2023-05-06T10:01:54;100784.94;;;23.76;41.74
40612;BME280;26317;44.894;20.286;2023-05-06T10:04:33;100861.59;;;24.36;40.72
40612;BME280;26317;44.894;20.286;2023-05-06T10:07:25;100839.75;;;24.39;40.83
40612;BME280;26317;44.894;20.286;2023-05-06T10:10:05;100851.66;;;24.62;40.54
40612;BME280;26317;44.894;20.286;2023-05-06T10:12:55;100849.28;;;24.61;40.16
40612;BME280;26317;44.894;20.286;2023-05-06T10:15:37;100842.56;;;24.58;40.75
40612;BME280;26317;44.894;20.286;2023-05-06T10:18:19;100730.75;;;23.86;40.39
40612;BME280;26317;44.894;20.286;2023-05-06T10:20:57;100820.56;;;24.39;40.92
40612;BME280;26317;44.894;20.286;2023-05-06T10:23:46;100789.34;;;24.12;40.73
40612;BME280;26317;44.894;20.286;2023-05-06T10:26:32;100796.09;;;23.99;41.09
40612;BME280;26317;44.894;20.286;2023-05-06T10:29:19;100767.63;;;23.72;40.57
40612;BME280;26317;44.894;20.286;2023-05-06T10:31:58;100765.50;;;23.66;39.67
40612;BME280;26317;44.894;20.286;2023-05-06T10:34:46;100834.28;;;24.08;40.25
40612;BME280;26317;44.894;20.286;2023-05-06T10:37:37;100793.25;;;23.96;39.59
40612;BME280;26317;44.894;20.286;2023-05-06T10:40:14;100799.53;;;24.12;40.20
40612;BME280;26317;44.894;20.286;2023-05-06T10:43:24;100793.16;;;24.08;40.28
40612;BME280;26317;44.894;20.286;2023-05-06T10:46:09;100760.47;;;23.83;38.83
40612;BME280;26317;44.894;20.286;2023-05-06T10:49:25;100824.03;;;24.20;39.44
40612;BME280;26317;44.894;20.286;2023-05-06T10:52:14;100827.34;;;24.14;40.17
40612;BME280;26317;44.894;20.286;2023-05-06T10:54:59;100818.47;;;24.17;39.56
40612;BME280;26317;44.894;20.286;2023-05-06T10:57:42;100804.38;;;24.03;39.13
40612;BME280;26317;44.894;20.286;2023-05-06T11:00:26;100811.47;;;24.04;39.91
40612;BME280;26317;44.894;20.286;2023-05-06T11:03:10;100710.00;;;23.37;41.10
40612;BME280;26317;44.894;20.286;2023-05-06T11:05:59;100777.59;;;23.80;42.72
40612;BME280;26317;44.894;20.286;2023-05-06T11:08:43;100760.72;;;23.94;42.57
40612;BME280;26317;44.894;20.286;2023-05-06T11:11:58;100772.22;;;24.15;40.08
40612;BME280;26317;44.894;20.286;2023-05-06T11:14:53;100805.34;;;24.42;41.04
40612;BME280;26317;44.894;20.286;2023-05-06T11:17:46;100797.91;;;24.42;40.91
40612;BME280;26317;44.894;20.286;2023-05-06T11:20:30;100705.69;;;23.83;40.17
40612;BME280;26317;44.894;20.286;2023-05-06T11:23:13;100793.78;;;24.33;39.54
40612;BME280;26317;44.894;20.286;2023-05-06T11:25:47;100782.47;;;24.18;39.19
40612;BME280;26317;44.894;20.286;2023-05-06T11:28:35;100808.56;;;24.28;38.93
40612;BME280;26317;44.894;20.286;2023-05-06T11:31:18;100693.13;;;23.51;38.52
40612;BME280;26317;44.894;20.286;2023-05-06T11:33:58;100772.47;;;23.95;38.49
40612;BME280;26317;44.894;20.286;2023-05-06T11:37:00;100803.97;;;24.16;39.39
40612;BME280;26317;44.894;20.286;2023-05-06T11:39:34;100745.81;;;23.92;39.80
40612;BME280;26317;44.894;20.286;2023-05-06T11:42:23;100767.16;;;24.33;38.65
40612;BME280;26317;44.894;20.286;2023-05-06T11:45:07;100738.75;;;24.41;39.61
40612;BME280;26317;44.894;20.286;2023-05-06T11:47:55;100808.13;;;25.15;38.53
40612;BME280;26317;44.894;20.286;2023-05-06T11:50:35;100806.00;;;25.28;38.56
40612;BME280;26317;44.894;20.286;2023-05-06T11:53:24;100801.50;;;25.39;37.57
40612;BME280;26317;44.894;20.286;2023-05-06T11:56:12;100801.06;;;25.56;37.87
40612;BME280;26317;44.894;20.286;2023-05-06T11:58:48;100785.50;;;25.63;37.84
40612;BME280;26317;44.894;20.286;2023-05-06T12:01:25;100793.69;;;25.83;37.81
40612;BME280;26317;44.894;20.286;2023-05-06T12:04:00;100793.31;;;26.07;38.13
40612;BME280;26317;44.894;20.286;2023-05-06T12:06:38;100789.00;;;26.32;37.26
40612;BME280;26317;44.894;20.286;2023-05-06T12:09:15;100783.06;;;26.57;35.90
40612;BME280;26317;44.894;20.286;2023-05-06T12:12:00;100790.19;;;26.61;34.57
40612;BME280;26317;44.894;20.286;2023-05-06T12:14:42;100784.56;;;26.50;35.31
40612;BME280;26317;44.894;20.286;2023-05-06T12:17:20;100764.22;;;26.29;36.03
40612;BME280;26317;44.894;20.286;2023-05-06T12:19:54;100785.81;;;26.30;35.62
40612;BME280;26317;44.894;20.286;2023-05-06T12:22:29;100791.97;;;26.20;36.23
40612;BME280;26317;44.894;20.286;2023-05-06T12:25:16;100759.25;;;26.15;35.08
40612;BME280;26317;44.894;20.286;2023-05-06T12:27:49;100775.03;;;26.44;35.62
40612;BME280;26317;44.894;20.286;2023-05-06T12:30:35;100777.59;;;26.60;35.43
40612;BME280;26317;44.894;20.286;2023-05-06T12:33:14;100773.94;;;26.79;33.67
40612;BME280;26317;44.894;20.286;2023-05-06T12:36:04;100771.88;;;27.02;35.12
40612;BME280;26317;44.894;20.286;2023-05-06T12:38:55;100780.53;;;27.37;33.85
40612;BME280;26317;44.894;20.286;2023-05-06T12:41:39;100780.34;;;27.57;32.78
40612;BME280;26317;44.894;20.286;2023-05-06T12:44:35;100776.78;;;27.56;32.39
40612;BME280;26317;44.894;20.286;2023-05-06T12:47:07;100766.69;;;27.71;32.41
40612;BME280;26317;44.894;20.286;2023-05-06T12:49:51;100768.84;;;27.92;31.30
40612;BME280;26317;44.894;20.286;2023-05-06T12:52:31;100759.88;;;28.05;32.11
40612;BME280;26317;44.894;20.286;2023-05-06T12:55:14;100763.19;;;28.25;31.44
40612;BME280;26317;44.894;20.286;2023-05-06T12:57:53;100752.63;;;28.38;31.61
40612;BME280;26317;44.894;20.286;2023-05-06T13:00:30;100743.22;;;28.46;30.36
40612;BME280;26317;44.894;20.286;2023-05-06T13:03:08;100756.31;;;28.63;30.60
40612;BME280;26317;44.894;20.286;2023-05-06T13:05:44;100751.97;;;28.69;30.69
40612;BME280;26317;44.894;20.286;2023-05-06T13:08:26;100750.47;;;28.78;30.17
40612;BME280;26317;44.894;20.286;2023-05-06T13:11:03;100754.03;;;28.79;30.49
40612;BME280;26317;44.894;20.286;2023-05-06T13:13:40;100763.50;;;28.78;29.21
40612;BME280;26317;44.894;20.286;2023-05-06T13:16:18;100760.66;;;28.67;29.88
40612;BME280;26317;44.894;20.286;2023-05-06T13:18:53;100758.19;;;28.48;29.51
40612;BME280;26317;44.894;20.286;2023-05-06T13:21:27;100759.34;;;28.44;28.69
40612;BME280;26317;44.894;20.286;2023-05-06T13:24:02;100758.94;;;28.34;29.69
40612;BME280;26317;44.894;20.286;2023-05-06T13:26:34;100749.38;;;28.21;29.67
40612;BME280;26317;44.894;20.286;2023-05-06T13:29:20;100735.78;;;27.95;31.10
40612;BME280;26317;44.894;20.286;2023-05-06T13:31:57;100749.94;;;27.94;31.21
40612;BME280;26317;44.894;20.286;2023-05-06T13:34:34;100753.81;;;27.85;31.45
40612;BME280;26317;44.894;20.286;2023-05-06T13:37:10;100757.63;;;27.70;32.23
40612;BME280;26317;44.894;20.286;2023-05-06T13:39:48;100755.94;;;27.55;31.18
40612;BME280;26317;44.894;20.286;2023-05-06T13:42:20;100751.88;;;27.45;31.36
40612;BME280;26317;44.894;20.286;2023-05-06T13:45:02;100753.47;;;27.47;31.23
40612;BME280;26317;44.894;20.286;2023-05-06T13:47:38;100752.31;;;27.48;31.40
40612;BME280;26317;44.894;20.286;2023-05-06T13:50:23;100746.94;;;27.62;32.04
40612;BME280;26317;44.894;20.286;2023-05-06T13:52:59;100739.94;;;27.75;31.31
40612;BME280;26317;44.894;20.286;2023-05-06T13:55:34;100749.88;;;27.83;30.89